Time;durP1;ratioP1;P1;durP2;ratioP2;P2;SDS_P1;SDS_P2;PMS_P1;PMS_P2;Temp;Humidity;BMP_temperature;BMP_pressure;BME280_temperature;BME280_humidity;BME280_pressure;Samples;Min_cycle;Max_cycle;Signal;HPM_P1;HPM_P2
2023/09/01 00:02:55;;;;;;;5.65;5.15;;;;;;;-144.30;77.11;84394.66;5108520;28;20187;-53
2023/09/01 00:11:48;;;;;;;7.18;4.85;;;;;;;-144.30;74.97;84408.56;5109934;28;20267;-52
2023/09/01 00:18:09;;;;;;;8.55;4.90;;;;;;;-144.30;74.28;85211.56;5109735;28;20198;-54
2023/09/01 00:23:39;;;;;;;5.40;4.75;;;;;;;-144.30;75.45;84424.47;5109509;28;20198;-55
2023/09/01 00:39:12;;;;;;;6.47;4.68;;;;;;;-144.30;73.87;84442.34;5110451;28;20194;-51
2023/09/01 00:48:20;;;;;;;4.85;4.35;;;;;;;-144.30;74.98;84444.34;5110367;28;20226;-51
2023/09/01 00:51:12;;;;;;;7.50;4.10;;;;;;;-144.30;72.06;84396.66;5109525;28;20722;-53
2023/09/01 01:03:32;;;;;;;3.55;3.35;;;;;;;-144.30;68.14;84442.34;5107368;28;20206;-54
2023/09/01 01:10:20;;;;;;;;;;;;;;;;;;;;;
2023/09/01 01:19:41;;;;;;;4.45;4.00;;;;;;;-144.30;66.47;84476.13;5107831;28;20203;-55
2023/09/01 01:26:32;;;;;;;4.88;3.72;;;;;;;-144.30;66.28;84507.94;5109527;28;20198;-55
2023/09/01 01:38:32;;;;;;;4.63;3.55;;;;;;;-144.30;66.31;84462.22;5106058;28;20202;-54
2023/09/01 01:41:26;;;;;;;6.00;3.53;;;;;;;-144.30;66.14;84496.00;5109091;28;20587;-54
2023/09/01 01:56:53;;;;;;;;;;;;;;;;;;;;;
2023/09/01 02:21:10;;;;;;;6.13;4.60;;;;;;;-144.30;67.27;84581.47;5124783;28;20246;-52
2023/09/01 02:27:10;;;;;;;12.20;10.65;;;;;;;-144.30;66.86;84597.38;5126749;28;20661;-52
2023/09/01 02:42:12;;;;;;;8.48;6.45;;;;;;;-144.30;66.20;84637.13;5123306;28;20206;-56
2023/09/01 02:44:39;;;;;;;7.05;6.45;;;;;;;-144.30;66.34;84609.31;5119846;28;20259;-54
2023/09/01 02:47:14;;;;;;;7.60;6.05;;;;;;;-144.30;66.01;84621.22;5125700;28;20279;-52
2023/09/01 02:49:49;;;;;;;4.85;4.38;;;;;;;-144.30;65.19;84633.16;5125964;28;20202;-55
2023/09/01 02:52:31;;;;;;;8.50;3.95;;;;;;;-144.30;65.55;84603.34;5124156;28;20201;-55
2023/09/01 03:01:12;;;;;;;11.73;7.57;;;;;;;-144.30;65.72;84617.25;5109643;28;20234;-54
2023/09/01 03:04:14;;;;;;;6.93;4.32;;;;;;;-144.30;65.06;84623.22;5111612;28;20217;-55
2023/09/01 03:09:50;;;;;;;12.45;4.78;;;;;;;-144.30;65.19;84678.84;5094754;28;20194;-52
2023/09/01 03:12:33;;;;;;;4.70;4.30;;;;;;;-144.30;65.76;84668.94;5111714;28;20194;-52
2023/09/01 03:18:20;;;;;;;4.85;4.35;;;;;;;-144.30;65.19;84660.97;5094498;28;20285;-52
2023/09/01 03:21:30;;;;;;;;;;;;;;;;;;;;;
2023/09/01 03:24:10;;;;;;;4.97;4.57;;;;;;;-144.30;65.02;84674.88;5110015;28;20198;-55
2023/09/01 03:27:04;;;;;;;9.65;5.18;;;;;;;-144.30;65.03;84678.84;5110384;28;20230;-55
2023/09/01 03:30:03;;;;;;;4.85;4.43;;;;;;;-144.30;64.61;84688.81;5109557;28;20663;-54
2023/09/01 03:32:41;;;;;;;5.68;4.38;;;;;;;-144.30;63.75;84676.88;5110840;28;20678;-54
2023/09/01 03:35:14;;;;;;;4.22;3.83;;;;;;;-144.30;63.07;84670.91;5108838;28;20198;-54
2023/09/01 03:37:47;;;;;;;5.90;3.97;;;;;;;-144.30;63.12;84657.00;5111386;28;20758;-54
2023/09/01 03:43:58;;;;;;;8.93;4.30;;;;;;;-144.30;62.83;84639.13;5111439;28;20711;-54
2023/09/01 03:46:39;;;;;;;7.43;3.80;;;;;;;-144.30;62.88;84613.28;5109964;28;20249;-51
2023/09/01 03:49:26;;;;;;;5.53;4.43;;;;;;;-144.30;63.19;84609.31;5111534;28;20201;-50
2023/09/01 03:51:57;;;;;;;3.83;3.55;;;;;;;-144.30;63.26;84623.22;5110914;28;20194;-48
2023/09/01 03:54:32;;;;;;;6.00;3.80;;;;;;;-144.30;63.36;84641.09;5111099;28;20199;-53
2023/09/01 03:57:08;;;;;;;4.03;3.67;;;;;;;-144.30;63.29;84655.00;5111177;28;20591;-50
2023/09/01 03:59:58;;;;;;;5.28;4.05;;;;;;;-144.30;62.82;84649.03;5111079;28;20209;-50
2023/09/01 04:03:03;;;;;;;4.05;3.47;;;;;;;-144.30;62.51;84613.28;5109989;28;20674;-49
2023/09/01 04:05:48;;;;;;;3.80;3.50;;;;;;;-144.30;62.42;84613.28;5110929;28;20608;-49
2023/09/01 04:08:54;;;;;;;4.05;3.60;;;;;;;-144.30;61.91;84613.28;5110350;28;20205;-53
2023/09/01 04:11:57;;;;;;;5.13;3.53;;;;;;;-144.30;62.19;84623.22;5110814;28;20194;-50
2023/09/01 04:17:50;;;;;;;4.82;3.67;;;;;;;-144.30;62.03;84605.31;5110528;28;20247;-52
2023/09/01 04:24:01;;;;;;;4.20;3.78;;;;;;;-144.30;61.24;84591.41;5110199;28;20202;-51
2023/09/01 04:26:57;;;;;;;8.00;3.40;;;;;;;-144.30;61.01;84555.63;5109298;28;20190;-48
2023/09/01 04:29:24;;;;;;;4.72;3.58;;;;;;;-144.30;60.24;84486.06;5109094;28;20230;-49
2023/09/01 04:32:00;;;;;;;9.57;3.75;;;;;;;-144.30;58.59;84438.38;5109729;28;20194;-48
2023/09/01 04:34:36;;;;;;;8.55;3.65;;;;;;;-144.30;55.69;84309.19;5109795;28;20190;-49
2023/09/01 04:37:21;;;;;;;7.68;3.65;;;;;;;-144.30;52.16;84078.69;5109405;28;20218;-52
2023/09/01 04:40:01;;;;;;;3.67;3.38;;;;;;;-144.30;49.61;83977.34;5109351;28;20759;-51
2023/09/01 04:42:47;;;;;;;7.03;3.90;;;;;;;-144.30;47.45;83830.28;5109425;28;20201;-53
2023/09/01 04:45:28;;;;;;;5.78;3.80;;;;;;;-144.30;45.60;83726.97;5109437;28;20629;-52
2023/09/01 04:48:07;;;;;;;10.63;3.65;;;;;;;-144.30;44.11;83581.91;5068268;28;20200;-53
2023/09/01 04:50:46;;;;;;;5.30;4.80;;;;;;;-144.30;41.93;83413.03;5067564;28;20207;-53
2023/09/01 04:53:35;;;;;;;3.80;3.40;;;;;;;-144.30;39.90;83277.94;5067834;28;20196;-54
2023/09/01 04:56:16;;;;;;;8.05;5.43;;;;;;;-144.30;38.58;83113.03;5069184;28;20220;-53
2023/09/01 04:58:53;;;;;;;12.00;8.27;;;;;;;-144.30;37.29;82946.16;5068395;28;20203;-54
2023/09/01 05:01:25;;;;;;;11.77;5.15;;;;;;;-144.30;36.25;82777.31;5069050;28;20196;-53
2023/09/01 05:04:09;;;;;;;6.78;5.22;;;;;;;-144.30;35.04;82630.34;5068556;28;20199;-52
2023/09/01 05:06:38;;;;;;;10.38;5.60;;;;;;;-144.30;34.23;82503.22;5068143;28;20275;-50
2023/09/01 05:10:07;;;;;;;20.98;6.43;;;;;;;-144.30;33.77;82368.13;5068843;28;20296;-51
2023/09/01 05:13:31;;;;;;;10.85;4.78;;;;;;;-144.30;33.02;82209.25;5067667;28;20218;-51
2023/09/01 05:16:27;;;;;;;10.40;3.85;;;;;;;-144.30;31.88;82090.09;5063107;28;20202;-51
2023/09/01 05:18:57;;;;;;;13.32;4.40;;;;;;;-144.30;32.10;82076.19;5067919;28;20199;-49
2023/09/01 05:21:43;;;;;;;10.25;4.70;;;;;;;-144.30;31.66;81996.75;5066351;28;20196;-51
2023/09/01 05:24:39;;;;;;;8.60;4.78;;;;;;;-144.30;31.46;81891.50;5067642;28;20291;-51
2023/09/01 05:27:22;;;;;;;7.43;4.38;;;;;;;-144.30;31.55;81935.19;5067317;28;20204;-49
2023/09/01 05:30:02;;;;;;;13.85;4.65;;;;;;;-144.30;31.44;81897.44;5067705;28;20223;-52
2023/09/01 05:32:38;;;;;;;11.95;4.65;;;;;;;-144.30;30.74;81814.03;5068037;28;20191;-54
2023/09/01 05:35:15;;;;;;;8.43;3.95;;;;;;;-144.30;30.35;81704.81;5067123;28;20682;-54
2023/09/01 05:37:54;;;;;;;11.27;4.90;;;;;;;-144.30;29.92;81633.31;5065486;28;20238;-54
2023/09/01 05:40:34;;;;;;;12.88;3.75;;;;;;;-144.30;30.46;81762.41;5068245;28;20187;-53
2023/09/01 05:43:17;;;;;;;20.63;4.65;;;;;;;-144.30;30.35;81808.09;5065617;28;20278;-53
2023/09/01 05:46:04;;;;;;;9.07;4.47;;;;;;;-144.30;30.55;81762.41;5069113;28;20215;-54
2023/09/01 05:48:39;;;;;;;9.07;4.00;;;;;;;-144.30;30.35;81681.00;5107409;28;20190;-52
2023/09/01 05:51:19;;;;;;;19.88;11.55;;;;;;;-144.30;29.41;81549.94;5106693;28;20197;-53
2023/09/01 05:53:57;;;;;;;18.38;7.85;;;;;;;-144.30;29.51;81532.06;5106592;28;20189;-54
2023/09/01 05:56:37;;;;;;;9.25;6.32;;;;;;;-144.30;29.26;81494.31;5106216;28;20213;-54
2023/09/01 05:59:06;;;;;;;12.15;4.40;;;;;;;-144.30;28.83;81430.78;5106348;28;20243;-53
2023/09/01 06:01:48;;;;;;;9.73;4.35;;;;;;;-144.30;28.54;81359.31;5108844;28;20762;-53
2023/09/01 06:04:15;;;;;;;7.93;6.82;;;;;;;-144.30;28.19;81319.59;5108937;28;20684;-51
2023/09/01 06:06:48;;;;;;;5.72;4.13;;;;;;;-144.30;28.23;81285.84;5108834;28;20196;-51
2023/09/01 06:09:20;;;;;;;8.23;3.97;;;;;;;-144.30;28.36;81371.22;5108971;28;20677;-50
2023/09/01 06:11:51;;;;;;;11.65;4.07;;;;;;;-144.30;28.15;81287.81;5108448;28;20259;-53
2023/09/01 06:14:21;;;;;;;5.93;3.88;;;;;;;-144.30;27.63;81238.19;5106363;28;20322;-48
2023/09/01 06:16:55;;;;;;;8.48;4.55;;;;;;;-144.30;27.78;81299.72;5108553;28;20225;-50
2023/09/01 06:19:25;;;;;;;7.35;5.13;;;;;;;-144.30;28.08;81331.50;5108634;28;20672;-54
2023/09/01 06:21:53;;;;;;;7.05;6.43;;;;;;;-144.30;28.09;81377.16;5108540;28;20670;-54
2023/09/01 06:24:21;;;;;;;8.38;7.32;;;;;;;-144.30;27.98;81412.91;5108628;28;20205;-52
2023/09/01 06:26:52;;;;;;;6.63;4.07;;;;;;;-144.30;28.13;81387.09;5108675;28;20194;-50
2023/09/01 06:29:23;;;;;;;3.78;3.47;;;;;;;-144.30;27.38;81127.00;5108946;28;20228;-53
2023/09/01 06:32:02;;;;;;;6.32;3.85;;;;;;;-144.30;27.20;80970.16;5109015;28;20693;-54
2023/09/01 06:34:34;;;;;;;6.07;4.35;;;;;;;-144.30;26.88;80866.91;5112857;28;20596;-55
2023/09/01 06:37:05;;;;;;;9.15;4.38;;;;;;;-144.30;26.53;80636.63;5111833;28;20608;-54
2023/09/01 06:39:43;;;;;;;10.57;4.45;;;;;;;-144.30;26.57;80727.94;5112485;28;20195;-50
2023/09/01 06:42:18;;;;;;;9.07;4.10;;;;;;;-144.30;27.01;80892.72;5112399;28;20200;-53
2023/09/01 06:44:49;;;;;;;13.00;6.85;;;;;;;-144.30;26.85;80898.66;5112295;28;20206;-53
2023/09/01 06:47:22;;;;;;;4.03;3.70;;;;;;;-144.30;26.75;80787.50;5112039;28;20232;-53
2023/09/01 06:49:54;;;;;;;8.85;5.82;;;;;;;-144.30;26.09;80680.28;5112397;28;20281;-53
2023/09/01 06:52:29;;;;;;;3.92;3.63;;;;;;;-144.30;26.65;80918.53;5112707;28;20722;-53
2023/09/01 06:55:03;;;;;;;5.15;4.18;;;;;;;-144.30;26.65;80807.34;5112260;28;20669;-54
2023/09/01 06:57:34;;;;;;;7.65;5.18;;;;;;;-144.30;26.38;80636.63;5107083;28;20350;-54
2023/09/01 07:00:05;;;;;;;3.78;3.42;;;;;;;-144.30;26.62;80767.63;5109461;28;20206;-53
2023/09/01 07:02:39;;;;;;;6.72;5.60;;;;;;;-144.30;26.24;80600.88;5108371;28;20213;-53
2023/09/01 07:05:07;;;;;;;11.25;4.60;;;;;;;-144.30;25.77;80489.72;5111446;28;20666;-54
2023/09/01 07:07:36;;;;;;;9.25;4.55;;;;;;;-144.30;25.72;80418.25;5111776;28;20202;-53
2023/09/01 07:10:08;;;;;;;9.82;4.68;;;;;;;-144.30;25.70;80384.50;5111756;28;20198;-54
2023/09/01 07:12:38;;;;;;;11.45;9.30;;;;;;;-144.30;25.68;80330.91;5109130;28;20241;-53
2023/09/01 07:15:09;;;;;;;4.60;4.18;;;;;;;-144.30;25.27;80156.22;5111104;28;20213;-51
2023/09/01 07:17:45;;;;;;;9.07;8.38;;;;;;;-144.30;25.22;80100.66;5107516;28;20214;-52
2023/09/01 07:20:14;;;;;;;5.88;4.80;;;;;;;-144.30;24.81;79836.69;5108469;28;20185;-54
2023/09/01 07:22:47;;;;;;;5.00;4.60;;;;;;;-144.30;24.39;79878.34;5111432;28;20194;-53
2023/09/01 07:25:22;;;;;;;6.55;4.85;;;;;;;-144.30;25.08;80239.59;5111741;28;20797;-53
2023/09/01 07:27:56;;;;;;;9.10;4.45;;;;;;;-144.30;25.37;80368.63;5111483;28;20734;-55
2023/09/01 07:30:27;;;;;;;5.70;5.20;;;;;;;-144.30;25.83;80616.75;5111711;28;20194;-50
2023/09/01 07:33:07;;;;;;;9.18;6.10;;;;;;;-144.30;25.78;80624.72;5111294;28;20238;-51
2023/09/01 07:35:37;;;;;;;4.80;4.43;;;;;;;-144.30;25.65;80483.75;5111651;28;20194;-54
2023/09/01 07:38:06;;;;;;;7.05;4.38;;;;;;;-144.30;25.57;80461.94;5111394;28;20217;-53
2023/09/01 07:40:38;;;;;;;7.25;4.22;;;;;;;-144.30;25.60;80455.97;5108531;28;20201;-54
2023/09/01 07:43:07;;;;;;;6.00;4.22;;;;;;;-144.30;25.45;80442.06;5110994;28;20194;-53
2023/09/01 07:45:43;;;;;;;11.43;4.45;;;;;;;-144.30;25.02;80168.16;5110958;28;20307;-53
2023/09/01 07:48:17;;;;;;;18.10;4.68;;;;;;;-144.30;24.51;79941.88;5111220;28;20190;-49
2023/09/01 07:50:49;;;;;;;9.13;4.93;;;;;;;-144.30;24.93;80049.03;5111038;28;20209;-54
2023/09/01 07:53:20;;;;;;;9.45;5.20;;;;;;;-144.30;24.49;79922.03;5111041;28;20516;-54
2023/09/01 07:55:55;;;;;;;4.43;4.00;;;;;;;-144.30;24.37;79775.16;5110417;28;20194;-51
2023/09/01 07:58:24;;;;;;;4.35;3.97;;;;;;;-144.30;24.28;79733.47;5110098;28;20218;-49
2023/09/01 08:00:57;;;;;;;5.53;3.92;;;;;;;-144.30;24.04;79415.94;5110619;28;20194;-50
2023/09/01 08:03:30;;;;;;;5.55;3.75;;;;;;;-144.30;23.44;79052.78;5110910;28;20201;-51
2023/09/01 08:06:06;;;;;;;5.50;3.92;;;;;;;-144.30;23.60;79362.34;5110913;28;20202;-54
2023/09/01 08:08:38;;;;;;;4.13;3.92;;;;;;;-144.30;23.99;79433.78;5110640;28;20233;-54
2023/09/01 08:11:14;;;;;;;4.63;3.63;;;;;;;-144.30;23.60;79195.66;5110881;28;20202;-54
2023/09/01 08:13:45;;;;;;;4.00;3.58;;;;;;;-144.30;23.53;79281.00;5110792;28;20202;-55
2023/09/01 08:16:23;;;;;;;4.53;3.50;;;;;;;-144.30;23.25;79112.31;5110482;28;20198;-55
2023/09/01 08:18:59;;;;;;;5.35;4.03;;;;;;;-144.30;23.19;78769.06;5110232;28;20247;-49
2023/09/01 08:21:35;;;;;;;3.60;3.30;;;;;;;-144.30;22.81;78634.13;5110615;28;20692;-49
2023/09/01 08:24:10;;;;;;;5.88;3.30;;;;;;;-144.30;22.38;78338.53;5110600;28;20625;-54
2023/09/01 08:26:48;;;;;;;3.72;3.42;;;;;;;-144.30;22.43;78068.72;5110516;28;20233;-50
2023/09/01 08:29:22;;;;;;;4.07;3.42;;;;;;;-144.30;22.18;78078.66;5110052;28;20227;-53
2023/09/01 08:31:59;;;;;;;3.70;3.50;;;;;;;-144.30;22.63;78227.44;5110233;28;20643;-54
2023/09/01 08:34:38;;;;;;;3.83;3.13;;;;;;;-144.30;22.06;78009.22;5110399;28;20280;-49
2023/09/01 08:37:11;;;;;;;7.03;4.00;;;;;;;-144.30;21.85;77562.91;5110413;28;20205;-54
2023/09/01 08:39:47;;;;;;;3.88;3.58;;;;;;;-144.30;22.22;77989.38;5109822;28;20190;-53
2023/09/01 08:42:21;;;;;;;3.55;3.25;;;;;;;-144.30;22.20;78181.81;5104463;28;20255;-53
2023/09/01 08:44:56;;;;;;;3.25;3.05;;;;;;;-144.30;22.58;78945.66;5109721;28;20193;-53
2023/09/01 08:47:38;;;;;;;3.90;3.70;;;;;;;-144.30;23.38;79394.09;5109636;28;20225;-53
2023/09/01 08:50:12;;;;;;;5.43;3.35;;;;;;;-144.30;23.55;79721.56;5107071;28;20209;-53
2023/09/01 08:52:49;;;;;;;4.60;3.28;;;;;;;-144.30;23.37;79409.97;5108915;28;20674;-53
2023/09/01 08:55:24;;;;;;;4.55;3.30;;;;;;;-144.30;22.80;78939.69;5107929;28;20285;-50
2023/09/01 08:58:00;;;;;;;3.58;3.28;;;;;;;-144.30;22.52;78663.91;5109456;28;20217;-54
2023/09/01 09:00:29;;;;;;;4.22;3.35;;;;;;;-144.30;22.27;78154.03;5109105;28;20693;-52
2023/09/01 09:03:05;;;;;;;3.83;3.53;;;;;;;-144.30;22.11;78191.72;5109672;28;20194;-53
2023/09/01 09:05:49;;;;;;;4.65;3.80;;;;;;;-144.30;22.21;78570.66;5109754;28;20194;-54
2023/09/01 09:08:23;;;;;;;3.63;3.33;;;;;;;-144.30;22.51;78798.81;5109162;28;20296;-53
2023/09/01 09:10:57;;;;;;;6.50;3.50;;;;;;;-144.30;22.09;78257.19;5108715;28;20205;-53
2023/09/01 09:13:35;;;;;;;6.93;4.05;;;;;;;-144.30;22.41;78445.66;5109783;28;20308;-54
2023/09/01 09:16:20;;;;;;;5.35;4.28;;;;;;;-144.30;22.09;77997.31;5109704;28;20243;-53
2023/09/01 09:19:00;;;;;;;3.92;3.47;;;;;;;-144.30;21.64;77838.63;5109116;28;20229;-55
2023/09/01 09:21:38;;;;;;;3.00;2.90;;;;;;;-144.30;21.82;78094.53;5109462;28;20189;-48
2023/09/01 09:24:20;;;;;;;3.40;3.03;;;;;;;-144.30;22.24;78782.94;5109858;28;20208;-50
2023/09/01 09:27:02;;;;;;;4.30;3.15;;;;;;;-144.30;22.65;78913.91;5109340;28;20251;-49
2023/09/01 09:29:42;;;;;;;3.90;3.15;;;;;;;-144.30;22.48;79025.00;5107896;28;20285;-50
2023/09/01 09:32:21;;;;;;;3.28;2.92;;;;;;;-144.30;22.51;79017.06;5107918;28;20198;-49
2023/09/01 09:35:13;;;;;;;3.25;3.05;;;;;;;-144.30;22.37;78903.97;5107630;28;20219;-54
2023/09/01 09:38:01;;;;;;;3.70;3.40;;;;;;;-144.30;22.50;78983.34;5106361;28;20198;-54
2023/09/01 09:40:33;;;;;;;2.90;2.80;;;;;;;-144.30;22.43;78981.34;5089025;28;20206;-55
2023/09/01 09:43:03;;;;;;;3.22;2.58;;;;;;;-144.30;22.17;78788.91;5088903;28;20209;-53
2023/09/01 09:45:38;;;;;;;3.20;3.00;;;;;;;-144.30;22.14;78624.22;5088884;28;20576;-53
2023/09/01 09:48:10;;;;;;;2.88;2.70;;;;;;;-144.30;22.49;78921.84;5048755;28;20218;-52
2023/09/01 09:50:41;;;;;;;3.53;3.22;;;;;;;-144.30;22.56;78983.34;5048642;28;20200;-54
2023/09/01 09:53:22;;;;;;;5.15;4.22;;;;;;;-144.30;22.76;79211.53;5048253;28;20366;-53
2023/09/01 09:55:53;;;;;;;3.45;3.20;;;;;;;-144.30;22.42;79142.09;5048471;28;20715;-53
2023/09/01 09:58:36;;;;;;;3.47;3.28;;;;;;;-144.30;22.46;79231.38;5061572;28;20206;-53
2023/09/01 10:01:13;;;;;;;4.38;3.38;;;;;;;-144.30;22.64;79679.88;5067386;28;20627;-53
2023/09/01 10:03:43;;;;;;;3.28;2.97;;;;;;;-144.30;23.89;80301.13;5067969;28;20198;-53
2023/09/01 10:06:21;;;;;;;3.47;3.17;;;;;;;-144.30;24.44;80906.63;5068117;28;20203;-54
2023/09/01 10:08:55;;;;;;;3.45;3.15;;;;;;;-144.30;25.44;81307.69;5071567;28;20602;-54
2023/09/01 10:11:33;;;;;;;3.58;3.28;;;;;;;-144.30;25.92;81472.47;5052511;28;20191;-52
2023/09/01 10:14:05;;;;;;;3.45;2.88;;;;;;;-144.30;26.46;81722.69;5052639;28;20200;-48
2023/09/01 10:16:37;;;;;;;4.43;2.88;;;;;;;-144.30;26.26;81802.13;5051639;28;20195;-52
2023/09/01 10:19:11;;;;;;;4.30;2.85;;;;;;;-144.30;26.69;81875.59;5069470;28;20188;-53
2023/09/01 10:21:46;;;;;;;3.63;3.33;;;;;;;-144.30;27.04;81970.94;5068581;28;20198;-49
2023/09/01 10:24:20;;;;;;;3.28;3.08;;;;;;;-144.30;27.54;81945.09;5071418;28;20188;-53
2023/09/01 10:27:15;;;;;;;5.35;3.80;;;;;;;-144.30;27.25;81961.00;5071770;28;20231;-50
2023/09/01 10:29:47;;;;;;;4.25;3.80;;;;;;;-144.30;27.97;82076.19;5068958;28;20244;-48
2023/09/01 10:32:22;;;;;;;4.00;3.60;;;;;;;-144.30;27.88;82231.09;5071541;28;20202;-50
2023/09/01 10:35:02;;;;;;;3.60;3.30;;;;;;;-144.30;28.56;82316.50;5071585;28;20223;-48
2023/09/01 10:37:33;;;;;;;3.88;3.45;;;;;;;-144.30;28.90;82372.13;5070726;28;20229;-49
2023/09/01 10:40:44;;;;;;;4.85;4.45;;;;;;;-144.30;28.94;82314.50;5068867;28;20702;-50
2023/09/01 10:43:15;;;;;;;4.38;3.97;;;;;;;-144.30;28.87;82280.75;5066731;28;20654;-51
2023/09/01 10:46:22;;;;;;;3.38;3.17;;;;;;;-144.30;28.58;82292.66;5071253;28;20270;-52
2023/09/01 10:48:51;;;;;;;3.97;3.55;;;;;;;-144.30;28.62;82264.88;5107651;28;20220;-48
2023/09/01 10:51:27;;;;;;;5.40;3.00;;;;;;;-144.30;28.78;82296.63;5111792;28;20190;-53
2023/09/01 10:54:03;;;;;;;3.58;3.38;;;;;;;-144.30;29.21;82413.81;5111643;28;20631;-53
2023/09/01 10:56:58;;;;;;;3.72;3.42;;;;;;;-144.30;29.24;82439.66;5111917;28;20689;-53
2023/09/01 10:59:35;;;;;;;4.03;3.65;;;;;;;-144.30;29.31;82384.03;5109491;28;20198;-53
2023/09/01 11:02:28;;;;;;;4.00;3.70;;;;;;;-144.30;29.11;82330.41;5109662;28;20247;-53
2023/09/01 11:05:00;;;;;;;3.65;3.42;;;;;;;-144.30;29.34;82417.78;5109764;28;20747;-53
2023/09/01 11:07:30;;;;;;;4.03;3.40;;;;;;;-144.30;29.45;82427.72;5111761;28;20277;-53
2023/09/01 11:10:08;;;;;;;4.53;3.55;;;;;;;-144.30;29.36;82445.59;5108261;28;20373;-52
2023/09/01 11:12:48;;;;;;;8.70;3.63;;;;;;;-144.30;29.55;82384.03;5111626;28;20432;-52
2023/09/01 11:15:21;;;;;;;5.18;3.65;;;;;;;-144.30;28.98;82382.03;5111948;28;20250;-49
2023/09/01 11:17:59;;;;;;;3.25;3.05;;;;;;;-144.30;28.12;82401.91;5111182;28;20674;-47
2023/09/01 11:20:36;;;;;;;3.40;3.20;;;;;;;-144.30;28.18;82324.44;5111588;28;20198;-48
2023/09/01 11:23:05;;;;;;;3.17;2.97;;;;;;;-144.30;27.60;82388.00;5111718;28;20199;-49
2023/09/01 11:25:41;;;;;;;3.47;3.05;;;;;;;-144.30;27.80;82393.97;5110578;28;20191;-52
2023/09/01 11:28:18;;;;;;;3.65;3.00;;;;;;;-144.30;27.63;82344.31;5111698;28;20222;-52
2023/09/01 11:31:05;;;;;;;3.75;2.80;;;;;;;-144.30;27.80;82397.94;5108764;28;20230;-49
2023/09/01 11:33:38;;;;;;;3.42;2.70;;;;;;;-144.30;27.60;82384.03;5109909;28;20624;-49
2023/09/01 11:36:10;;;;;;;4.22;2.80;;;;;;;-144.30;27.57;82399.91;5108957;28;20224;-49
2023/09/01 11:38:43;;;;;;;3.95;2.72;;;;;;;-144.30;27.79;82427.72;5111111;28;20191;-52
2023/09/01 11:41:16;;;;;;;3.55;3.05;;;;;;;-144.30;27.83;82455.53;5109223;28;20878;-48
2023/09/01 11:43:50;;;;;;;8.73;4.93;;;;;;;-144.30;28.04;82427.72;5108040;28;20199;-50
2023/09/01 11:46:36;;;;;;;4.38;3.83;;;;;;;-144.30;27.79;82435.66;5110349;28;20234;-49
2023/09/01 11:49:07;;;;;;;4.75;4.40;;;;;;;-144.30;28.39;82403.91;5110366;28;20214;-51
2023/09/01 11:51:38;;;;;;;4.28;3.97;;;;;;;-144.30;28.12;82455.53;5108214;28;20201;-53
2023/09/01 11:54:16;;;;;;;9.07;6.03;;;;;;;-144.30;28.22;82475.41;5110892;28;20195;-52
2023/09/01 11:56:48;;;;;;;3.80;3.45;;;;;;;-144.30;28.04;82489.31;5110544;28;20701;-53
2023/09/01 11:59:26;;;;;;;6.22;3.35;;;;;;;-144.30;28.32;82435.66;5111316;28;20198;-53
2023/09/01 12:02:03;;;;;;;4.65;3.50;;;;;;;-144.30;28.00;82431.69;5110388;28;20206;-49
2023/09/01 12:04:36;;;;;;;6.05;3.22;;;;;;;-144.30;28.13;82513.13;5111246;28;20201;-49
2023/09/01 12:07:07;;;;;;;3.35;3.15;;;;;;;-144.30;28.37;82527.03;5111050;28;20709;-49
2023/09/01 12:09:43;;;;;;;3.00;2.80;;;;;;;-144.30;28.40;82536.97;5110761;28;20681;-49
2023/09/01 12:12:13;;;;;;;3.20;2.85;;;;;;;-144.30;28.00;82554.84;5110671;28;20193;-49
2023/09/01 12:14:51;;;;;;;3.13;2.92;;;;;;;-144.30;27.59;82586.63;5110959;28;20206;-48
2023/09/01 12:17:23;;;;;;;3.33;3.13;;;;;;;-144.30;27.90;82546.91;5110950;28;20201;-49
2023/09/01 12:20:01;;;;;;;3.30;3.10;;;;;;;-144.30;27.69;82542.94;5110574;28;20226;-49
2023/09/01 12:22:39;;;;;;;3.40;3.10;;;;;;;-144.30;27.94;82624.38;5110487;28;20213;-49
2023/09/01 12:25:14;;;;;;;3.17;2.88;;;;;;;-144.30;28.25;82642.25;5110899;28;20293;-54
2023/09/01 12:27:46;;;;;;;3.30;2.83;;;;;;;-144.30;28.20;82638.28;5110381;28;20267;-49
2023/09/01 12:30:24;;;;;;;3.95;2.90;;;;;;;-144.30;28.06;82697.88;5109572;28;20713;-48
2023/09/01 12:33:01;;;;;;;3.67;3.47;;;;;;;-144.30;28.17;82695.88;5110021;28;20194;-49
2023/09/01 12:35:29;;;;;;;4.10;3.00;;;;;;;-144.30;28.15;82713.75;5105217;28;20684;-53
2023/09/01 12:37:56;;;;;;;4.05;3.03;;;;;;;-144.30;28.00;82678.00;5109939;28;20198;-53
2023/09/01 12:40:24;;;;;;;3.40;3.10;;;;;;;-144.30;28.29;82681.97;5110192;28;20239;-49
2023/09/01 12:42:53;;;;;;;5.15;3.50;;;;;;;-144.30;28.27;82678.00;5110040;28;20650;-54
2023/09/01 12:45:23;;;;;;;3.70;3.40;;;;;;;-144.30;28.32;82707.81;5109924;28;20256;-52
2023/09/01 12:47:55;;;;;;;3.42;3.22;;;;;;;-144.30;28.46;82713.75;5109435;28;20230;-53
2023/09/01 12:50:26;;;;;;;3.25;3.05;;;;;;;-144.30;28.44;82737.59;5109171;28;20601;-53
2023/09/01 12:52:59;;;;;;;3.63;3.33;;;;;;;-144.30;28.56;82681.97;5120658;27;20638;-53
2023/09/01 12:55:35;;;;;;;3.90;2.97;;;;;;;-144.30;28.69;82725.69;5129950;27;20193;-53
2023/09/01 12:58:08;;;;;;;3.40;3.13;;;;;;;-144.30;28.44;82733.63;5130220;27;20193;-53
2023/09/01 13:00:47;;;;;;;3.33;3.00;;;;;;;-144.30;28.75;82642.25;5114819;27;20201;-52
2023/09/01 13:03:19;;;;;;;3.85;3.55;;;;;;;-144.30;28.95;82733.63;5108437;28;20269;-48
2023/09/01 13:05:52;;;;;;;3.72;3.53;;;;;;;-144.30;29.13;82695.88;5109171;28;20276;-52
2023/09/01 13:08:22;;;;;;;3.40;3.20;;;;;;;-144.30;28.71;82695.88;5107698;28;20190;-51
2023/09/01 13:10:53;;;;;;;3.30;3.10;;;;;;;-144.30;28.81;82689.91;5109450;28;20206;-49
2023/09/01 13:13:26;;;;;;;3.95;3.75;;;;;;;-144.30;29.14;82689.91;5109600;28;20213;-53
2023/09/01 13:15:57;;;;;;;3.22;2.95;;;;;;;-144.30;28.64;82705.81;5109739;28;20194;-49
2023/09/01 13:18:28;;;;;;;4.47;3.30;;;;;;;-144.30;28.51;82681.97;5109868;28;20739;-52
2023/09/01 13:21:03;;;;;;;3.47;3.28;;;;;;;-144.30;28.49;82658.13;5109561;28;20201;-52
2023/09/01 13:23:34;;;;;;;5.15;3.05;;;;;;;-144.30;28.89;82656.16;5109933;28;20205;-52
2023/09/01 13:26:05;;;;;;;3.92;3.60;;;;;;;-144.30;28.99;82678.00;5105150;28;20221;-52
2023/09/01 13:28:37;;;;;;;4.00;3.67;;;;;;;-144.30;28.83;82654.16;5108629;28;20198;-55
2023/09/01 13:31:13;;;;;;;3.47;3.08;;;;;;;-144.30;28.35;82630.34;5109253;28;20282;-52
2023/09/01 13:33:47;;;;;;;3.67;3.10;;;;;;;-144.30;28.50;82662.09;5109411;28;20232;-53
2023/09/01 13:36:18;;;;;;;4.00;3.60;;;;;;;-144.30;28.53;82658.13;5108970;28;20661;-53
2023/09/01 13:38:49;;;;;;;3.72;3.40;;;;;;;-144.30;28.31;82701.84;5108342;28;20251;-50
2023/09/01 13:41:22;;;;;;;3.70;3.40;;;;;;;-144.30;28.72;82678.00;5108410;28;20202;-52
2023/09/01 13:43:55;;;;;;;6.43;3.60;;;;;;;-144.30;28.62;82648.22;5109335;28;20240;-51
2023/09/01 13:46:30;;;;;;;3.55;3.35;;;;;;;-144.30;28.65;82676.03;5109368;28;20234;-52
2023/09/01 13:49:07;;;;;;;4.72;3.80;;;;;;;-144.30;28.71;82685.94;5109165;28;20225;-54
2023/09/01 13:51:38;;;;;;;4.40;4.10;;;;;;;-144.30;28.75;82630.34;5109448;28;20662;-52
2023/09/01 13:54:11;;;;;;;5.15;3.60;;;;;;;-144.30;28.64;82644.22;5109340;28;20281;-49
2023/09/01 13:56:42;;;;;;;3.63;3.33;;;;;;;-144.30;28.78;82622.38;5109145;28;20238;-52
2023/09/01 13:59:16;;;;;;;3.90;3.60;;;;;;;-144.30;28.44;82654.16;5109092;28;20250;-53
2023/09/01 14:01:51;;;;;;;3.20;2.90;;;;;;;-144.30;27.73;82624.38;5109256;28;20194;-49
2023/09/01 14:04:23;;;;;;;3.40;3.20;;;;;;;-144.30;28.37;82590.59;5108835;28;20694;-52
2023/09/01 14:06:55;;;;;;;4.25;3.90;;;;;;;-144.30;28.49;82642.25;5108839;28;20194;-52
2023/09/01 14:09:28;;;;;;;4.38;3.30;;;;;;;-144.30;28.18;82630.34;5108789;28;20251;-51
2023/09/01 14:12:02;;;;;;;3.22;3.03;;;;;;;-144.30;28.46;82636.28;5108771;28;20285;-52
2023/09/01 14:14:35;;;;;;;4.00;3.70;;;;;;;-144.30;28.43;82662.09;5108515;28;20202;-53
2023/09/01 14:17:12;;;;;;;3.75;3.45;;;;;;;-144.30;28.37;82662.09;5108066;28;20286;-53
2023/09/01 14:19:41;;;;;;;3.70;3.47;;;;;;;-144.30;28.36;82678.00;5108908;28;20562;-50
2023/09/01 14:22:12;;;;;;;3.65;3.17;;;;;;;-144.30;28.44;83273.97;5108619;28;20230;-54
2023/09/01 14:24:45;;;;;;;3.78;3.38;;;;;;;-144.30;28.25;82685.94;5108757;28;20198;-53